Time;durP1;ratioP1;P1;durP2;ratioP2;P2;SDS_P1;SDS_P2;PMS_P1;PMS_P2;Temp;Humidity;BMP_temperature;BMP_pressure;BME280_temperature;BME280_humidity;BME280_pressure;Samples;Min_cycle;Max_cycle;Signal;HPM_P1;HPM_P2
2023/09/06 00:00:29;;;;;;;6.45;4.75;;;;;;;18.04;88.50;101500.13;5085051;28;20135;-60
2023/09/06 00:03:45;;;;;;;6.57;4.40;;;;;;;17.98;89.46;101503.28;5089550;28;20046;-64
2023/09/06 00:06:13;;;;;;;6.32;5.18;;;;;;;17.91;89.19;101497.53;5086456;28;20111;-62
2023/09/06 00:08:40;;;;;;;9.38;4.93;;;;;;;17.87;90.07;101493.41;5085738;28;20044;-63
2023/09/06 00:11:07;;;;;;;8.32;4.82;;;;;;;17.84;90.13;101499.00;5086220;28;20564;-62
2023/09/06 00:13:35;;;;;;;7.05;4.80;;;;;;;17.83;90.41;101499.94;5086077;28;20140;-63
2023/09/06 00:16:03;;;;;;;7.68;4.75;;;;;;;17.79;90.51;101504.66;5068448;28;20556;-63
2023/09/06 00:18:30;;;;;;;8.77;4.65;;;;;;;17.76;91.08;101502.22;5085298;28;20045;-62
2023/09/06 00:20:59;;;;;;;9.95;4.72;;;;;;;17.75;90.57;101503.19;5069449;28;20090;-62
2023/09/06 00:23:26;;;;;;;6.22;4.82;;;;;;;17.75;90.33;101499.69;5069865;28;20076;-62
2023/09/06 00:25:53;;;;;;;5.38;4.20;;;;;;;17.75;90.23;101499.69;5088077;28;20075;-63
2023/09/06 00:28:23;;;;;;;7.85;4.57;;;;;;;17.73;89.97;101497.09;5065899;28;20490;-62
2023/09/06 00:30:51;;;;;;;10.57;5.38;;;;;;;17.71;91.16;101499.03;5087336;28;20060;-61
2023/09/06 00:33:19;;;;;;;5.75;4.53;;;;;;;17.67;91.10;101493.09;5051511;28;20320;-63
2023/09/06 00:35:47;;;;;;;6.43;3.85;;;;;;;17.65;91.21;101502.13;5085390;28;20059;-62
2023/09/06 00:38:15;;;;;;;8.32;4.88;;;;;;;17.63;91.52;101488.94;5086386;28;20464;-63
2023/09/06 00:40:50;;;;;;;7.72;4.88;;;;;;;17.60;91.79;101486.50;5086812;28;20507;-62
2023/09/06 00:43:17;;;;;;;8.18;4.40;;;;;;;17.57;92.15;101497.41;5064801;28;20076;-62
2023/09/06 00:45:46;;;;;;;7.88;4.30;;;;;;;17.54;92.73;101499.44;5064858;28;20157;-63
2023/09/06 00:48:23;;;;;;;5.78;4.35;;;;;;;17.52;92.81;101493.41;5071427;28;20084;-63
2023/09/06 00:50:53;;;;;;;7.40;4.20;;;;;;;17.48;92.51;101487.44;5085554;28;20109;-61
2023/09/06 00:53:22;;;;;;;15.15;4.30;;;;;;;17.42;93.32;101490.53;5085532;28;20097;-60
2023/09/06 00:55:49;;;;;;;7.28;4.40;;;;;;;17.38;94.36;101491.72;5066755;28;20612;-62
2023/09/06 00:58:18;;;;;;;7.45;4.60;;;;;;;17.31;93.81;101486.00;5085721;28;20124;-62
2023/09/06 01:00:47;;;;;;;8.77;4.60;;;;;;;17.30;94.64;101494.97;5083263;28;20075;-61
2023/09/06 01:03:15;;;;;;;8.13;4.25;;;;;;;17.27;94.76;101489.00;5079546;28;20052;-62
2023/09/06 01:05:49;;;;;;;5.90;4.03;;;;;;;17.23;94.31;101491.03;5087497;28;20135;-62
2023/09/06 01:08:20;;;;;;;6.55;4.18;;;;;;;17.20;94.73;101492.13;5049386;28;20056;-63
2023/09/06 01:10:50;;;;;;;4.82;4.15;;;;;;;17.19;94.43;101492.22;5067974;28;20143;-62
2023/09/06 01:13:19;;;;;;;7.55;4.55;;;;;;;17.17;94.59;101491.50;5082339;28;20109;-62
2023/09/06 01:15:48;;;;;;;8.27;4.70;;;;;;;17.15;95.23;101480.94;5084320;28;20125;-63
2023/09/06 01:18:16;;;;;;;6.65;4.07;;;;;;;17.14;94.98;101495.22;5067892;28;20097;-62
2023/09/06 01:20:52;;;;;;;8.23;4.47;;;;;;;17.13;94.96;101496.19;5066973;28;20798;-61
2023/09/06 01:23:38;;;;;;;6.50;4.50;;;;;;;17.12;95.42;101497.16;5065840;28;20810;-62
2023/09/06 01:26:05;;;;;;;;;;;;;;;17.10;94.95;101495.56;5067103;28;20058;-61
2023/09/06 01:28:33;;;;;;;9.60;4.93;;;;;;;17.08;94.93;101498.34;5084077;28;19939;-65
2023/09/06 01:31:01;;;;;;;4.47;4.07;;;;;;;17.07;95.03;101498.47;5080992;28;20040;-60
2023/09/06 01:33:29;;;;;;;8.85;4.38;;;;;;;17.06;96.08;101488.75;5080136;28;20086;-62
2023/09/06 01:35:57;;;;;;;4.95;3.75;;;;;;;17.00;95.60;101492.72;5067315;28;20502;-63
2023/09/06 01:38:24;;;;;;;8.32;4.60;;;;;;;16.95;96.07;101489.53;5084064;28;20112;-62
2023/09/06 01:40:53;;;;;;;6.68;4.68;;;;;;;16.92;96.59;101489.75;5087621;28;20183;-62
2023/09/06 01:43:21;;;;;;;9.65;5.00;;;;;;;16.89;96.86;101488.19;5089369;28;20109;-62
2023/09/06 01:45:51;;;;;;;8.05;4.40;;;;;;;16.85;97.22;101489.34;5084344;28;20064;-62
2023/09/06 01:48:19;;;;;;;7.68;4.07;;;;;;;16.84;98.02;101485.00;5079616;28;20099;-61
2023/09/06 01:50:47;;;;;;;6.07;4.40;;;;;;;16.83;97.48;101483.28;5086764;28;20139;-64
2023/09/06 01:53:14;;;;;;;5.60;4.15;;;;;;;16.82;97.46;101483.41;5084054;28;20548;-62
2023/09/06 01:55:43;;;;;;;5.55;4.13;;;;;;;16.80;97.23;101482.69;5088843;28;20601;-63
2023/09/06 01:58:12;;;;;;;6.70;4.45;;;;;;;16.77;98.22;101477.56;5086952;28;20597;-60
2023/09/06 02:00:39;;;;;;;4.82;4.13;;;;;;;16.72;98.35;101488.53;5045294;28;20119;-60
2023/09/06 02:03:09;;;;;;;5.32;4.22;;;;;;;16.70;98.18;101483.28;5087333;28;20620;-61
2023/09/06 02:05:37;;;;;;;5.50;4.57;;;;;;;16.69;98.26;101481.56;5089024;28;20753;-63
2023/09/06 02:08:04;;;;;;;8.75;5.10;;;;;;;16.68;99.75;101476.38;5083133;28;20158;-62
2023/09/06 02:10:32;;;;;;;5.35;4.10;;;;;;;16.64;99.68;101472.25;5067948;28;20089;-61
2023/09/06 02:13:00;;;;;;;6.15;5.15;;;;;;;16.63;99.38;101478.53;5089112;28;20094;-62
2023/09/06 02:15:29;;;;;;;7.25;4.65;;;;;;;16.61;98.70;101475.09;5087443;28;20055;-63
2023/09/06 02:17:57;;;;;;;5.57;4.35;;;;;;;16.59;99.32;101474.38;5067935;28;20561;-63
2023/09/06 02:20:25;;;;;;;7.95;4.70;;;;;;;16.54;100.00;101466.72;5090283;28;20582;-61
2023/09/06 02:22:57;;;;;;;6.53;4.95;;;;;;;16.54;100.00;101474.69;5087788;28;20139;-60
2023/09/06 02:25:30;;;;;;;6.35;4.53;;;;;;;16.54;99.97;101472.03;5086317;28;20087;-62
2023/09/06 02:27:58;;;;;;;12.00;4.80;;;;;;;16.55;100.00;101470.22;5067143;28;20048;-62
2023/09/06 02:30:25;;;;;;;6.78;5.05;;;;;;;16.53;100.00;101477.47;5087590;28;20054;-62
2023/09/06 02:32:54;;;;;;;5.07;4.28;;;;;;;16.52;100.00;101470.44;5088136;28;20109;-62
2023/09/06 02:35:22;;;;;;;7.88;4.97;;;;;;;16.49;100.00;101476.00;5089591;28;20164;-64
2023/09/06 02:37:49;;;;;;;7.18;4.78;;;;;;;16.46;100.00;101479.69;5084466;28;20238;-61
2023/09/06 02:40:18;;;;;;;6.13;4.65;;;;;;;16.43;100.00;101480.75;5080950;28;20074;-62
2023/09/06 02:42:51;;;;;;;10.23;5.78;;;;;;;16.41;100.00;101481.84;5085800;28;20151;-62
2023/09/06 02:45:18;;;;;;;5.82;4.97;;;;;;;16.38;100.00;101484.69;5086950;28;20055;-62
2023/09/06 02:47:50;;;;;;;8.20;5.18;;;;;;;16.36;100.00;101491.94;5061957;28;20066;-63
2023/09/06 02:50:22;;;;;;;8.25;4.95;;;;;;;16.37;100.00;101488.31;5087543;28;20131;-62
2023/09/06 02:52:52;;;;;;;5.93;4.55;;;;;;;16.34;100.00;101491.16;5088740;28;20084;-62
2023/09/06 02:55:20;;;;;;;9.20;5.57;;;;;;;16.34;100.00;101485.84;5084760;28;20052;-61
2023/09/06 02:57:49;;;;;;;9.98;5.72;;;;;;;16.32;100.00;101490.44;5078632;28;20087;-62
2023/09/06 03:02:47;;;;;;;8.77;4.95;;;;;;;16.31;100.00;101504.69;5082854;28;20044;-63
2023/09/06 03:05:17;;;;;;;8.75;5.13;;;;;;;16.30;100.00;101502.97;5086726;28;20419;-60
2023/09/06 03:07:53;;;;;;;8.05;5.22;;;;;;;16.30;100.00;101511.81;5084148;28;20630;-62
2023/09/06 03:10:22;;;;;;;7.78;5.05;;;;;;;16.28;100.00;101505.75;5082629;28;20212;-62
2023/09/06 03:12:54;;;;;;;11.73;5.18;;;;;;;16.27;100.00;101513.81;5069344;28;20086;-62
2023/09/06 03:15:22;;;;;;;7.93;4.78;;;;;;;16.23;100.00;101513.19;5084280;28;20087;-63
2023/09/06 03:17:51;;;;;;;7.90;4.75;;;;;;;16.20;100.00;101503.59;5079530;28;20114;-61
2023/09/06 03:20:19;;;;;;;8.77;4.93;;;;;;;16.16;100.00;101502.09;5085341;28;20072;-61
2023/09/06 03:22:47;;;;;;;6.55;5.28;;;;;;;16.14;100.00;101508.50;5059064;28;20127;-61
2023/09/06 03:25:15;;;;;;;9.20;4.95;;;;;;;16.10;100.00;101509.66;5062798;28;20145;-61
2023/09/06 03:27:42;;;;;;;7.68;5.13;;;;;;;16.08;100.00;101517.75;5081739;28;20048;-61
2023/09/06 03:30:12;;;;;;;7.72;5.45;;;;;;;16.05;100.00;101512.63;5081893;28;20239;-62
2023/09/06 03:32:41;;;;;;;6.97;4.95;;;;;;;16.02;100.00;101514.63;5079535;28;20052;-60
2023/09/06 03:35:09;;;;;;;10.10;5.60;;;;;;;15.98;100.00;101521.09;5080220;28;20079;-63
2023/09/06 03:37:36;;;;;;;7.63;5.60;;;;;;;15.95;100.00;101515.06;5081209;28;20059;-61
2023/09/06 03:40:25;;;;;;;7.47;5.60;;;;;;;15.95;100.00;101520.38;5088813;28;20076;-60
2023/09/06 03:42:54;;;;;;;7.93;5.60;;;;;;;15.94;100.00;101526.66;5067262;28;20062;-62
2023/09/06 03:45:21;;;;;;;7.53;5.28;;;;;;;15.94;100.00;101531.09;5083939;28;20095;-62
2023/09/06 03:47:49;;;;;;;8.00;5.05;;;;;;;15.94;100.00;101531.09;5089901;28;20047;-64
2023/09/06 03:50:17;;;;;;;8.93;5.50;;;;;;;15.90;100.00;101532.25;5091722;28;20748;-61
2023/09/06 03:52:45;;;;;;;5.28;4.78;;;;;;;15.88;100.00;101539.47;5082968;28;20766;-62
2023/09/06 03:55:12;;;;;;;7.38;5.00;;;;;;;15.87;100.00;101537.78;5066388;28;20084;-61
2023/09/06 03:57:39;;;;;;;8.05;5.32;;;;;;;15.84;100.00;101543.28;5058453;28;20143;-61
2023/09/06 04:03:10;;;;;;;8.68;5.90;;;;;;;15.80;100.00;101545.28;5044838;28;20510;-62
2023/09/06 04:05:41;;;;;;;16.45;6.18;;;;;;;15.81;100.00;101554.13;5087367;28;20131;-61
2023/09/06 04:08:09;;;;;;;7.35;5.97;;;;;;;15.77;100.00;101553.47;5082712;28;20048;-62
2023/09/06 04:10:36;;;;;;;7.68;5.82;;;;;;;15.76;100.00;101550.88;5083963;28;20132;-62
2023/09/06 04:13:07;;;;;;;8.98;5.75;;;;;;;15.75;100.00;101557.16;5085360;28;20047;-63
2023/09/06 04:15:35;;;;;;;8.90;5.95;;;;;;;15.73;100.00;101551.97;5081773;28;21022;-62
2023/09/06 04:18:09;;;;;;;8.43;5.50;;;;;;;15.71;100.00;101553.84;5080153;28;20165;-62
2023/09/06 04:20:39;;;;;;;6.20;5.15;;;;;;;15.68;100.00;101548.75;5083802;28;20279;-55
2023/09/06 04:23:09;;;;;;;9.27;6.38;;;;;;;15.66;100.00;101548.84;5081999;28;22074;-59
2023/09/06 04:25:44;;;;;;;9.75;5.53;;;;;;;15.65;100.00;101549.78;5091470;28;20502;-63
2023/09/06 04:28:17;;;;;;;7.07;5.78;;;;;;;15.65;100.00;101552.44;5087143;28;20410;-61
2023/09/06 04:30:47;;;;;;;6.75;5.53;;;;;;;15.67;100.00;101547.91;5083835;28;20044;-62
2023/09/06 04:33:15;;;;;;;8.05;5.00;;;;;;;15.69;100.00;101551.31;5080840;28;20086;-60
2023/09/06 04:35:49;;;;;;;11.45;6.72;;;;;;;15.73;100.00;101554.63;5088071;28;20078;-62
2023/09/06 04:38:19;;;;;;;7.55;5.78;;;;;;;15.75;100.00;101565.97;5086517;28;20079;-62
2023/09/06 04:40:47;;;;;;;7.18;5.82;;;;;;;15.77;100.00;101560.56;5084184;28;20067;-64
2023/09/06 04:43:18;;;;;;;7.18;5.50;;;;;;;15.76;100.00;101565.03;5066315;28;20135;-64
2023/09/06 04:45:49;;;;;;;10.15;6.53;;;;;;;15.79;100.00;101558.66;5084833;28;20094;-61
2023/09/06 04:48:17;;;;;;;9.32;5.50;;;;;;;15.79;100.00;101564.81;5046957;28;20051;-63
2023/09/06 04:50:46;;;;;;;10.13;6.55;;;;;;;15.80;100.00;101557.69;5080359;28;20052;-60
2023/09/06 04:53:17;;;;;;;7.05;5.72;;;;;;;15.85;100.00;101563.56;5066964;28;20082;-58
2023/09/06 04:55:47;;;;;;;8.80;5.95;;;;;;;15.90;100.00;101562.31;5086381;28;20158;-61
2023/09/06 04:58:15;;;;;;;7.65;6.38;;;;;;;15.96;100.00;101563.72;5080001;28;20898;-64
2023/09/06 05:00:44;;;;;;;11.95;5.65;;;;;;;16.02;100.00;101560.63;5084510;28;20147;-61
2023/09/06 05:03:12;;;;;;;7.95;5.60;;;;;;;16.03;100.00;101575.63;5085919;28;20158;-66
2023/09/06 05:05:41;;;;;;;10.57;6.57;;;;;;;16.05;100.00;101564.91;5085693;28;20514;-61
2023/09/06 05:08:09;;;;;;;6.75;4.80;;;;;;;16.09;100.00;101567.25;5078348;28;20040;-60
2023/09/06 05:10:37;;;;;;;10.95;6.07;;;;;;;16.11;100.00;101573.28;5071845;28;20068;-64
2023/09/06 05:13:07;;;;;;;8.10;6.32;;;;;;;16.16;100.00;101570.31;5081425;28;20078;-63
2023/09/06 05:15:36;;;;;;;9.60;6.10;;;;;;;16.18;100.00;101571.94;5082530;28;20070;-61
2023/09/06 05:18:04;;;;;;;9.70;6.05;;;;;;;16.26;100.00;101573.25;5069432;28;20052;-62
2023/09/06 05:20:35;;;;;;;8.75;6.22;;;;;;;16.28;100.00;101584.59;5070501;28;20131;-60
2023/09/06 05:23:07;;;;;;;12.45;6.30;;;;;;;16.35;100.00;101585.91;5082658;28;20127;-63
2023/09/06 05:25:35;;;;;;;12.85;6.88;;;;;;;16.35;100.00;101570.81;5067573;28;20590;-62
2023/09/06 05:28:09;;;;;;;11.02;6.68;;;;;;;16.40;100.00;101579.31;5084373;28;20101;-62
2023/09/06 05:30:40;;;;;;;8.23;6.85;;;;;;;16.43;99.63;101572.91;5081753;28;20072;-62
2023/09/06 05:33:08;;;;;;;11.30;6.70;;;;;;;16.50;99.39;101571.56;5083073;28;20060;-61
2023/09/06 05:35:36;;;;;;;8.63;6.57;;;;;;;16.59;98.67;101575.38;5078460;28;20093;-61
2023/09/06 05:38:04;;;;;;;9.40;6.47;;;;;;;16.66;98.12;101577.53;5081380;28;20117;-63
2023/09/06 05:40:33;;;;;;;9.43;6.35;;;;;;;16.75;97.50;101578.72;5080614;28;20056;-63
2023/09/06 05:43:01;;;;;;;8.88;6.63;;;;;;;16.82;96.72;101579.13;5082485;28;20295;-60
2023/09/06 05:45:28;;;;;;;8.15;6.63;;;;;;;16.88;96.14;101581.34;5081877;28;20075;-62
2023/09/06 05:47:55;;;;;;;15.98;6.65;;;;;;;16.96;95.68;101585.19;5084173;28;20056;-61
2023/09/06 05:50:23;;;;;;;10.88;6.75;;;;;;;17.05;94.96;101588.16;5052944;28;20068;-62
2023/09/06 05:52:50;;;;;;;10.52;6.78;;;;;;;17.12;94.41;101594.75;5084755;28;20215;-59
2023/09/06 05:55:18;;;;;;;10.82;7.00;;;;;;;17.20;93.71;101592.38;5066046;28;20142;-64
2023/09/06 05:57:45;;;;;;;9.77;6.65;;;;;;;17.27;93.09;101592.81;5084214;28;20075;-64
2023/09/06 06:00:15;;;;;;;12.00;6.53;;;;;;;17.30;92.55;101595.25;5078464;28;20135;-62
2023/09/06 06:02:45;;;;;;;10.00;7.05;;;;;;;17.32;92.26;101594.16;5078679;28;20586;-62
2023/09/06 06:05:14;;;;;;;11.05;8.02;;;;;;;17.34;91.66;101592.25;5081144;28;20135;-62
2023/09/06 06:07:43;;;;;;;21.33;8.35;;;;;;;17.42;91.64;101602.34;5084492;28;20509;-62
2023/09/06 06:10:10;;;;;;;16.33;7.40;;;;;;;17.53;91.23;101597.09;5085634;28;20552;-59
2023/09/06 06:12:38;;;;;;;11.50;7.68;;;;;;;17.64;90.71;101601.63;5083820;28;20063;-64
2023/09/06 06:15:16;;;;;;;9.85;6.78;;;;;;;17.70;90.09;101596.72;5067232;28;20145;-62
2023/09/06 06:17:43;;;;;;;9.23;6.90;;;;;;;17.79;89.64;101597.03;5082133;28;20465;-61
2023/09/06 06:20:11;;;;;;;12.27;7.35;;;;;;;17.83;88.90;101601.16;5083978;28;20048;-62
2023/09/06 06:22:39;;;;;;;13.07;7.25;;;;;;;17.87;88.27;101597.31;5056395;28;20123;-62
2023/09/06 06:25:08;;;;;;;15.10;7.18;;;;;;;17.93;87.96;101602.19;5080997;28;20101;-62
2023/09/06 06:27:39;;;;;;;10.93;7.10;;;;;;;18.02;87.60;101604.16;5082103;28;20138;-61
2023/09/06 06:30:07;;;;;;;12.23;6.70;;;;;;;18.15;87.12;101601.44;5085740;28;20188;-60
2023/09/06 06:32:35;;;;;;;13.90;7.75;;;;;;;18.23;86.48;101604.34;5082349;28;20097;-61
2023/09/06 06:35:05;;;;;;;11.02;7.25;;;;;;;18.33;85.92;101602.72;5084426;28;20044;-62
2023/09/06 06:37:33;;;;;;;8.15;6.50;;;;;;;18.40;85.19;101603.06;5083826;28;20139;-62
2023/09/06 06:40:01;;;;;;;11.15;6.70;;;;;;;18.52;84.72;101603.97;5084154;28;20086;-62
2023/09/06 06:42:28;;;;;;;9.60;6.93;;;;;;;18.63;84.41;101603.97;5079134;28;20052;-60
2023/09/06 06:44:55;;;;;;;7.88;6.50;;;;;;;18.70;83.75;101599.91;5079688;28;20097;-61
2023/09/06 06:47:23;;;;;;;10.13;7.13;;;;;;;18.78;82.68;101593.97;5084849;28;20124;-60
2023/09/06 06:49:51;;;;;;;9.35;6.97;;;;;;;18.82;82.37;101601.63;5083574;28;20072;-60
2023/09/06 06:52:18;;;;;;;16.90;6.97;;;;;;;18.94;82.07;101599.81;5083323;28;20048;-61
2023/09/06 06:54:46;;;;;;;9.65;6.93;;;;;;;19.05;81.67;101606.94;5060239;28;20467;-62
2023/09/06 06:57:13;;;;;;;23.33;8.70;;;;;;;19.12;80.59;101609.03;5066706;28;20434;-61
2023/09/06 06:59:41;;;;;;;12.93;7.15;;;;;;;19.29;80.54;101614.84;5083761;28;20543;-60
2023/09/06 07:02:08;;;;;;;18.25;8.23;;;;;;;19.41;79.53;101619.22;5079031;28;20046;-61
2023/09/06 07:04:36;;;;;;;11.43;7.32;;;;;;;19.52;79.23;101616.50;5081911;28;20083;-61
2023/09/06 07:07:03;;;;;;;18.23;6.93;;;;;;;19.58;78.13;101621.34;5083019;28;20055;-61
2023/09/06 07:09:31;;;;;;;14.07;7.15;;;;;;;19.72;78.31;101623.78;5084988;28;20076;-62
2023/09/06 07:11:59;;;;;;;13.93;7.57;;;;;;;19.88;77.13;101619.84;5084995;28;20083;-59
2023/09/06 07:14:26;;;;;;;10.02;6.80;;;;;;;19.96;76.02;101614.72;5086805;28;20505;-61
2023/09/06 07:16:53;;;;;;;15.18;7.53;;;;;;;20.03;75.95;101626.59;5084170;28;20043;-62
2023/09/06 07:19:21;;;;;;;19.05;7.63;;;;;;;20.10;74.86;101621.59;5083059;28;20059;-61
2023/09/06 07:21:49;;;;;;;17.08;6.90;;;;;;;20.25;74.52;101620.31;5088055;28;20316;-60
2023/09/06 07:24:16;;;;;;;11.70;7.32;;;;;;;20.33;73.84;101628.53;5086494;28;20150;-62
2023/09/06 07:26:43;;;;;;;13.98;6.72;;;;;;;20.43;73.33;101625.94;5088298;28;20052;-61
2023/09/06 07:29:10;;;;;;;11.40;6.70;;;;;;;20.60;72.98;101629.88;5083062;28;21768;-61
2023/09/06 07:31:39;;;;;;;14.63;6.90;;;;;;;20.69;72.95;101626.41;5087753;28;20113;-62
2023/09/06 07:34:07;;;;;;;11.50;6.00;;;;;;;20.86;72.20;101633.00;5087934;28;20052;-63
2023/09/06 07:36:34;;;;;;;14.55;7.03;;;;;;;20.93;71.11;101636.81;5087071;28;20055;-62
2023/09/06 07:39:02;;;;;;;11.52;6.68;;;;;;;20.98;70.69;101630.13;5082562;28;20151;-59
2023/09/06 07:41:29;;;;;;;14.00;6.43;;;;;;;21.14;70.98;101634.13;5080264;28;20087;-59
2023/09/06 07:43:56;;;;;;;14.80;7.43;;;;;;;21.22;69.48;101628.94;5086481;28;20514;-60
2023/09/06 07:46:26;;;;;;;18.05;6.90;;;;;;;21.33;69.92;101630.69;5083510;28;20063;-61
2023/09/06 07:48:54;;;;;;;21.45;7.45;;;;;;;21.47;68.56;101636.50;5085335;28;20078;-61
2023/09/06 07:51:23;;;;;;;13.48;6.85;;;;;;;21.65;68.84;101634.03;5083809;28;20082;-61
2023/09/06 07:53:50;;;;;;;11.38;6.95;;;;;;;21.78;67.48;101636.44;5066502;28;20588;-62
2023/09/06 07:56:18;;;;;;;9.65;6.15;;;;;;;21.94;66.93;101638.59;5084321;28;20180;-61
2023/09/06 07:58:45;;;;;;;13.25;6.53;;;;;;;22.06;66.61;101645.50;5082338;28;20131;-61
2023/09/06 08:01:12;;;;;;;10.60;7.13;;;;;;;22.28;66.05;101644.41;5077440;28;20055;-62
2023/09/06 08:03:46;;;;;;;15.02;7.30;;;;;;;22.37;63.57;101643.56;5065020;28;20435;-62
2023/09/06 08:06:15;;;;;;;10.93;7.15;;;;;;;22.51;63.90;101647.63;5081756;28;20085;-62
2023/09/06 08:08:43;;;;;;;11.45;6.45;;;;;;;22.62;63.18;101650.19;5085657;28;20048;-61
2023/09/06 08:11:10;;;;;;;12.98;7.07;;;;;;;22.77;62.95;101650.56;5068766;28;20126;-61
2023/09/06 08:13:38;;;;;;;12.55;7.35;;;;;;;22.90;61.87;101648.44;5083616;28;20148;-61
2023/09/06 08:16:07;;;;;;;13.35;7.10;;;;;;;23.03;62.14;101645.44;5061555;28;20052;-61
2023/09/06 08:18:37;;;;;;;10.00;6.20;;;;;;;23.21;61.68;101650.88;5084195;28;20138;-61
2023/09/06 08:21:07;;;;;;;10.20;6.18;;;;;;;23.35;61.52;101650.41;5080207;28;20036;-62
2023/09/06 08:23:35;;;;;;;12.73;7.45;;;;;;;23.44;59.69;101652.19;5079830;28;20127;-63
2023/09/06 08:26:03;;;;;;;11.20;6.00;;;;;;;23.52;59.21;101650.59;5085060;28;20166;-62
2023/09/06 08:28:31;;;;;;;9.73;5.85;;;;;;;23.63;59.11;101650.38;5079285;28;20737;-63
2023/09/06 08:31:01;;;;;;;10.07;5.97;;;;;;;23.79;58.58;101649.78;5083191;28;20139;-62
2023/09/06 08:33:29;;;;;;;12.27;5.63;;;;;;;23.89;58.08;101658.59;5080873;28;20071;-61
2023/09/06 08:35:58;;;;;;;15.10;6.38;;;;;;;23.96;57.12;101652.47;5081609;28;20139;-63
2023/09/06 08:38:26;;;;;;;9.27;6.05;;;;;;;23.99;56.48;101656.69;5083993;28;20083;-62
2023/09/06 08:40:54;;;;;;;11.38;5.55;;;;;;;24.16;56.88;101657.69;5083959;28;20475;-62
2023/09/06 08:43:23;;;;;;;10.45;5.68;;;;;;;24.38;56.68;101659.09;5073036;28;20063;-63
2023/09/06 08:45:51;;;;;;;9.27;4.88;;;;;;;24.53;55.96;101662.09;5083026;28;20083;-62
2023/09/06 08:48:18;;;;;;;9.00;5.07;;;;;;;24.70;55.32;101650.44;5063932;28;20172;-62
2023/09/06 08:50:46;;;;;;;9.30;4.80;;;;;;;24.81;55.31;101655.56;5062907;28;20090;-62
2023/09/06 08:53:15;;;;;;;9.07;5.10;;;;;;;24.94;55.07;101657.81;5078885;28;20185;-62
2023/09/06 08:55:44;;;;;;;7.45;5.05;;;;;;;25.07;54.13;101658.22;5065929;28;20155;-63
2023/09/06 08:58:11;;;;;;;6.43;5.60;;;;;;;25.14;53.98;101661.19;5078289;28;20082;-62
2023/09/06 09:00:39;;;;;;;9.75;5.95;;;;;;;25.23;53.96;101666.44;5064041;28;20105;-63
2023/09/06 09:03:06;;;;;;;9.23;5.25;;;;;;;25.36;53.42;101655.22;5065961;28;20242;-63
2023/09/06 09:05:34;;;;;;;10.88;5.72;;;;;;;25.45;51.95;101665.03;5077198;28;20135;-62
2023/09/06 09:08:04;;;;;;;6.85;5.03;;;;;;;25.40;51.92;101664.69;5061591;28;20052;-63
2023/09/06 09:10:32;;;;;;;11.18;4.75;;;;;;;25.55;50.42;101664.91;5080105;28;20056;-65
2023/09/06 09:13:01;;;;;;;6.78;4.55;;;;;;;25.51;49.16;101652.75;5081514;28;20047;-60
2023/09/06 09:15:32;;;;;;;6.85;4.43;;;;;;;25.53;49.92;101656.09;5063532;28;20060;-62
2023/09/06 09:18:11;;;;;;;8.50;4.93;;;;;;;25.58;49.81;101653.78;5067296;28;20162;-61
2023/09/06 09:20:43;;;;;;;5.53;4.20;;;;;;;25.75;49.36;101660.91;5079110;28;20102;-61
2023/09/06 09:23:14;;;;;;;6.65;4.05;;;;;;;25.93;49.32;101659.97;5081382;28;20493;-61
2023/09/06 09:25:49;;;;;;;6.25;4.35;;;;;;;26.12;48.33;101662.38;5062361;28;20582;-62
2023/09/06 09:28:16;;;;;;;6.82;4.32;;;;;;;25.98;48.18;101663.88;5077416;28;20139;-61
2023/09/06 09:30:48;;;;;;;7.00;4.63;;;;;;;25.94;48.27;101670.59;5078472;28;20709;-61
2023/09/06 09:33:15;;;;;;;10.05;4.10;;;;;;;26.04;47.87;101672.31;5080144;28;20590;-62
2023/09/06 09:35:44;;;;;;;8.75;4.35;;;;;;;26.07;47.47;101669.25;5077897;28;20072;-61
2023/09/06 09:38:11;;;;;;;7.78;4.45;;;;;;;26.11;47.32;101676.84;5087579;28;20135;-62
2023/09/06 09:40:38;;;;;;;8.45;5.22;;;;;;;26.16;46.96;101679.06;5081591;28;20079;-62
2023/09/06 09:43:09;;;;;;;11.63;4.70;;;;;;;26.17;47.59;101683.47;5067870;28;20512;-62
2023/09/06 09:45:45;;;;;;;13.05;4.50;;;;;;;26.23;46.51;101675.53;5081089;28;20075;-63
2023/09/06 09:48:15;;;;;;;6.25;4.78;;;;;;;26.43;47.19;101680.59;5075793;28;20078;-62
2023/09/06 09:50:44;;;;;;;6.65;4.35;;;;;;;26.58;47.23;101672.72;5076906;28;20139;-61
2023/09/06 09:53:12;;;;;;;6.22;4.60;;;;;;;26.69;47.42;101667.78;5085409;28;20649;-62
2023/09/06 09:55:47;;;;;;;8.48;5.05;;;;;;;26.78;46.85;101665.91;5079899;28;20131;-60
2023/09/06 09:58:15;;;;;;;10.25;4.78;;;;;;;26.85;46.27;101669.63;5080168;28;20496;-60
2023/09/06 10:00:43;;;;;;;9.07;4.63;;;;;;;26.94;47.23;101670.47;5074780;28;20460;-60
2023/09/06 10:03:11;;;;;;;9.25;5.05;;;;;;;27.14;47.23;101662.81;5082461;28;20191;-62
2023/09/06 10:05:38;;;;;;;6.65;4.57;;;;;;;27.32;47.07;101666.13;5076271;28;20071;-62
2023/09/06 10:08:11;;;;;;;7.05;4.78;;;;;;;27.45;46.91;101660.19;5080337;28;20052;-62
2023/09/06 10:10:39;;;;;;;7.60;3.97;;;;;;;27.59;46.37;101669.41;5080244;28;20132;-61
2023/09/06 10:13:08;;;;;;;6.65;4.55;;;;;;;27.58;44.25;101665.84;5064158;28;20132;-62
2023/09/06 10:15:37;;;;;;;6.57;3.95;;;;;;;27.62;45.01;101663.66;5075290;28;20505;-60
2023/09/06 10:18:06;;;;;;;7.15;4.13;;;;;;;27.73;45.34;101668.69;5079078;28;20080;-62
2023/09/06 10:20:35;;;;;;;6.60;4.78;;;;;;;27.78;44.83;101660.88;5080202;28;20189;-60
2023/09/06 10:23:05;;;;;;;8.32;4.18;;;;;;;27.97;44.50;101670.41;5063182;28;20079;-62
2023/09/06 10:25:39;;;;;;;8.63;3.92;;;;;;;27.93;43.25;101669.09;5062212;28;22019;-63
2023/09/06 10:28:07;;;;;;;9.43;4.40;;;;;;;28.01;43.23;101677.16;5078025;28;20075;-61
2023/09/06 10:30:44;;;;;;;6.35;4.18;;;;;;;28.05;42.15;101674.91;5076782;28;20048;-61
2023/09/06 10:33:42;;;;;;;11.88;4.22;;;;;;;28.02;41.29;101670.72;5060299;28;20048;-60
2023/09/06 10:36:12;;;;;;;7.47;4.85;;;;;;;28.04;41.99;101679.47;5077645;28;20162;-62
2023/09/06 10:38:55;;;;;;;6.85;4.32;;;;;;;28.05;42.81;101673.03;5083248;28;20530;-61
2023/09/06 10:41:24;;;;;;;7.57;4.47;;;;;;;28.14;42.81;101673.81;5079821;28;20565;-61
2023/09/06 10:43:55;;;;;;;6.72;4.63;;;;;;;28.18;42.30;101678.69;5079627;28;20053;-60
2023/09/06 10:46:27;;;;;;;11.40;4.45;;;;;;;28.20;41.60;101673.97;5079160;28;20139;-61
2023/09/06 10:49:19;;;;;;;7.70;4.05;;;;;;;28.24;41.94;101674.44;5077948;28;20083;-62
2023/09/06 10:51:55;;;;;;;6.97;4.40;;;;;;;28.35;41.31;101667.78;5064839;28;20072;-61
2023/09/06 10:54:39;;;;;;;7.55;4.13;;;;;;;28.48;40.92;101674.28;5088306;28;20505;-62
2023/09/06 10:57:08;;;;;;;6.88;4.43;;;;;;;28.55;41.02;101668.13;5078265;28;20151;-63
2023/09/06 10:59:38;;;;;;;6.20;4.65;;;;;;;28.73;41.21;101665.94;5061935;28;20163;-62
2023/09/06 11:02:14;;;;;;;7.00;4.57;;;;;;;28.96;41.55;101660.47;5065187;28;20569;-62
2023/09/06 11:04:43;;;;;;;6.70;4.88;;;;;;;29.14;41.94;101651.97;5078005;28;20169;-62
2023/09/06 11:07:11;;;;;;;4.72;3.70;;;;;;;29.31;41.05;101653.44;5084365;28;20065;-62
2023/09/06 11:09:43;;;;;;;12.35;4.50;;;;;;;29.47;41.13;101647.81;5066986;28;20075;-60
2023/09/06 11:12:12;;;;;;;14.07;5.10;;;;;;;29.51;40.05;101651.81;5082621;28;20065;-63
2023/09/06 11:14:40;;;;;;;6.55;4.45;;;;;;;29.58;40.05;101648.38;5077668;28;20581;-62
2023/09/06 11:17:07;;;;;;;9.13;5.15;;;;;;;29.57;39.53;101642.09;5076627;28;20067;-62
2023/09/06 11:19:36;;;;;;;8.65;4.75;;;;;;;29.75;40.26;101647.94;5080122;28;20051;-62
2023/09/06 11:22:10;;;;;;;5.28;4.03;;;;;;;29.99;41.33;101652.19;5084312;28;20124;-62
2023/09/06 11:24:38;;;;;;;10.18;4.88;;;;;;;30.22;40.24;101638.44;5083834;28;20048;-62
2023/09/06 11:27:37;;;;;;;7.05;4.70;;;;;;;30.36;39.88;101641.28;5060750;28;20131;-60
2023/09/06 11:30:15;;;;;;;9.15;4.53;;;;;;;30.51;38.64;101645.56;5049641;28;20056;-61
2023/09/06 11:32:45;;;;;;;8.48;4.38;;;;;;;30.34;36.94;101649.59;5083492;28;20131;-63
2023/09/06 11:35:14;;;;;;;7.43;4.22;;;;;;;30.42;37.07;101643.19;5044801;28;20120;-62
2023/09/06 11:37:49;;;;;;;7.53;4.28;;;;;;;30.63;37.25;101637.72;5065443;28;20079;-61